Time;durP1;ratioP1;P1;durP2;ratioP2;P2;SDS_P1;SDS_P2;PMS_P1;PMS_P2;Temp;Humidity;BMP_temperature;BMP_pressure;BME280_temperature;BME280_humidity;BME280_pressure;Samples;Min_cycle;Max_cycle;Signal;HPM_P1;HPM_P2
2022/07/10 00:01:48;;;;;;;2.97;1.30;;;18.40;60.10;;;;;;5095206;28;20027;-73
2022/07/10 00:04:13;;;;;;;4.60;1.30;;;18.40;60.10;;;;;;5113040;28;20032;-73
2022/07/10 00:06:41;;;;;;;3.80;1.25;;;18.40;60.00;;;;;;5113002;28;20029;-73
2022/07/10 00:09:07;;;;;;;5.82;1.52;;;18.40;59.80;;;;;;5113004;28;20027;-73
2022/07/10 00:11:33;;;;;;;3.95;1.40;;;18.50;59.60;;;;;;5112952;28;20039;-73
2022/07/10 00:13:59;;;;;;;5.60;1.60;;;18.50;59.60;;;;;;5095123;28;20032;-73
2022/07/10 00:16:25;;;;;;;4.07;1.10;;;18.50;59.60;;;;;;5112931;28;20036;-73
2022/07/10 00:18:51;;;;;;;3.70;1.10;;;18.50;59.80;;;;;;5112842;28;20036;-73
2022/07/10 00:21:16;;;;;;;1.92;1.10;;;18.50;59.60;;;;;;5112581;28;20426;-73
2022/07/10 00:23:42;;;;;;;4.28;1.65;;;18.50;59.60;;;;;;5112991;28;20024;-73
2022/07/10 00:26:09;;;;;;;2.90;0.80;;;18.50;59.60;;;;;;5115782;28;20024;-73
2022/07/10 00:28:34;;;;;;;3.42;1.10;;;18.50;59.90;;;;;;5116323;28;20028;-73
2022/07/10 00:31:00;;;;;;;3.65;1.10;;;18.50;60.00;;;;;;5116362;28;20020;-73
2022/07/10 00:33:27;;;;;;;3.35;1.23;;;18.40;60.10;;;;;;5116289;28;20433;-73
2022/07/10 00:35:53;;;;;;;4.45;1.83;;;18.30;60.40;;;;;;5116237;28;20020;-73
2022/07/10 00:38:19;;;;;;;4.25;1.20;;;18.20;60.80;;;;;;5116314;28;20082;-73
2022/07/10 00:40:44;;;;;;;4.93;1.40;;;18.00;61.30;;;;;;5116181;28;20031;-74
2022/07/10 00:43:10;;;;;;;4.72;1.20;;;17.90;61.60;;;;;;5116138;28;20024;-73
2022/07/10 00:45:36;;;;;;;5.68;1.58;;;17.90;61.80;;;;;;5098122;28;20032;-73
2022/07/10 00:48:02;;;;;;;4.45;1.33;;;18.00;61.50;;;;;;5116065;28;20028;-73
2022/07/10 00:50:29;;;;;;;6.50;1.65;;;18.00;61.50;;;;;;5115998;28;20024;-73
2022/07/10 00:52:55;;;;;;;3.95;1.15;;;18.00;61.40;;;;;;5098023;28;20036;-73
2022/07/10 00:55:21;;;;;;;3.55;1.65;;;18.00;61.60;;;;;;5115747;28;20075;-73
2022/07/10 00:57:48;;;;;;;5.03;1.50;;;18.00;61.80;;;;;;5098001;28;20028;-73
2022/07/10 01:00:14;;;;;;;4.65;1.77;;;18.00;62.00;;;;;;5115830;28;20079;-73
2022/07/10 01:02:43;;;;;;;4.05;1.10;;;17.90;62.00;;;;;;5097825;28;20424;-74
2022/07/10 01:05:09;;;;;;;3.65;1.23;;;18.00;62.00;;;;;;5115710;28;20080;-73
2022/07/10 01:07:36;;;;;;;3.88;1.30;;;18.00;62.00;;;;;;5098050;28;20032;-74
2022/07/10 01:10:02;;;;;;;4.55;1.23;;;18.00;61.90;;;;;;5115626;28;20020;-74
2022/07/10 01:12:28;;;;;;;2.45;1.10;;;18.00;61.60;;;;;;5115589;28;20063;-73
2022/07/10 01:14:54;;;;;;;4.07;1.30;;;18.00;62.00;;;;;;5115688;28;20028;-73
2022/07/10 01:17:20;;;;;;;3.33;1.42;;;17.90;62.40;;;;;;5115444;28;20028;-73
2022/07/10 01:19:46;;;;;;;2.10;1.17;;;17.90;62.10;;;;;;5115460;28;20070;-73
2022/07/10 01:22:11;;;;;;;4.38;1.48;;;17.80;61.90;;;;;;5097559;28;20521;-73
2022/07/10 01:24:37;;;;;;;3.40;1.25;;;17.90;61.80;;;;;;5097387;28;20096;-73
2022/07/10 01:27:03;;;;;;;3.45;1.27;;;17.90;61.80;;;;;;5115287;28;20028;-73
2022/07/10 01:29:29;;;;;;;5.97;1.48;;;17.80;61.60;;;;;;5115167;28;20024;-73
2022/07/10 01:31:55;;;;;;;6.13;1.60;;;17.60;62.00;;;;;;5115218;28;20019;-74
2022/07/10 01:34:21;;;;;;;3.83;1.30;;;17.50;62.20;;;;;;5115178;28;20105;-74
2022/07/10 01:36:47;;;;;;;3.28;1.38;;;17.50;62.30;;;;;;5096917;28;20028;-74
2022/07/10 01:39:13;;;;;;;3.30;1.30;;;17.40;62.20;;;;;;5115005;28;20562;-74
2022/07/10 01:41:39;;;;;;;4.03;1.40;;;17.40;62.40;;;;;;5115022;28;20031;-73
2022/07/10 01:44:04;;;;;;;4.93;1.58;;;17.20;62.70;;;;;;5114942;28;20025;-74
2022/07/10 01:46:30;;;;;;;4.68;1.30;;;17.10;64.00;;;;;;5114928;28;20051;-74
2022/07/10 01:48:56;;;;;;;2.80;1.30;;;17.10;63.30;;;;;;5114873;28;20028;-74
2022/07/10 01:51:22;;;;;;;4.70;1.45;;;17.10;63.50;;;;;;5114814;28;20028;-74
2022/07/10 01:53:48;;;;;;;2.67;1.42;;;17.00;63.80;;;;;;5114805;28;20024;-74
2022/07/10 01:56:15;;;;;;;3.80;1.58;;;17.00;64.10;;;;;;5114546;28;20067;-74
2022/07/10 01:58:41;;;;;;;3.15;1.58;;;17.00;64.20;;;;;;5114639;28;20024;-74
2022/07/10 02:01:08;;;;;;;5.28;1.70;;;17.00;64.30;;;;;;5114620;28;20387;-74
2022/07/10 02:06:19;;;;;;;4.82;1.58;;;17.00;64.60;;;;;;5114766;28;20031;-74
2022/07/10 02:08:44;;;;;;;4.70;1.58;;;17.00;64.50;;;;;;5114521;28;20020;-74
2022/07/10 02:11:12;;;;;;;4.55;1.73;;;17.00;64.60;;;;;;5114599;28;20074;-73
2022/07/10 02:13:38;;;;;;;3.50;1.52;;;16.90;64.70;;;;;;5114430;28;20028;-73
2022/07/10 02:16:04;;;;;;;3.38;1.52;;;16.90;65.00;;;;;;5114371;28;20028;-73
2022/07/10 02:18:30;;;;;;;6.07;1.50;;;16.90;65.10;;;;;;5114179;28;20047;-73
2022/07/10 02:20:56;;;;;;;3.53;1.48;;;16.80;65.10;;;;;;5114269;28;20028;-73
2022/07/10 02:23:21;;;;;;;7.00;1.75;;;16.70;65.50;;;;;;5114393;28;20088;-73
2022/07/10 02:25:47;;;;;;;3.25;1.10;;;16.70;65.50;;;;;;5096452;28;20032;-74
2022/07/10 02:28:12;;;;;;;3.65;1.35;;;16.70;65.70;;;;;;5114200;28;20032;-74
2022/07/10 02:30:38;;;;;;;2.45;1.45;;;16.70;65.70;;;;;;5114235;28;20033;-74
2022/07/10 02:33:04;;;;;;;3.65;1.30;;;16.80;65.60;;;;;;5114070;28;20035;-73
2022/07/10 02:35:29;;;;;;;6.30;1.75;;;16.70;65.90;;;;;;5114042;28;20036;-73
2022/07/10 02:37:55;;;;;;;2.92;1.52;;;16.60;66.10;;;;;;5113898;28;20032;-73
2022/07/10 02:40:20;;;;;;;2.65;1.02;;;16.60;66.40;;;;;;5113958;28;20020;-73
2022/07/10 02:42:46;;;;;;;4.82;1.40;;;16.50;66.30;;;;;;5096110;28;20039;-73
2022/07/10 02:45:12;;;;;;;3.00;1.33;;;16.60;66.70;;;;;;5113886;28;20048;-74
2022/07/10 02:47:37;;;;;;;3.97;1.40;;;16.60;66.50;;;;;;5095322;28;20087;-74
2022/07/10 02:50:03;;;;;;;6.60;1.38;;;16.60;66.30;;;;;;5113813;28;20024;-74
2022/07/10 02:52:32;;;;;;;3.45;1.63;;;16.70;66.10;;;;;;5113768;28;20039;-74
2022/07/10 02:54:58;;;;;;;3.83;1.45;;;16.80;65.90;;;;;;5113752;28;20058;-74
2022/07/10 02:57:24;;;;;;;2.95;1.70;;;16.90;65.90;;;;;;5113458;28;20051;-74
2022/07/10 02:59:49;;;;;;;7.45;1.45;;;16.90;65.80;;;;;;5113690;28;20031;-74
2022/07/10 03:02:15;;;;;;;2.15;1.23;;;16.80;65.90;;;;;;5113670;28;20031;-74
2022/07/10 03:04:41;;;;;;;1.33;0.98;;;16.70;66.50;;;;;;5113627;28;20096;-74
2022/07/10 03:07:07;;;;;;;3.05;1.20;;;16.70;66.50;;;;;;5113573;28;20379;-73
2022/07/10 03:09:32;;;;;;;2.90;0.98;;;16.70;66.70;;;;;;5095877;28;20076;-73
2022/07/10 03:11:58;;;;;;;2.15;1.42;;;16.70;66.70;;;;;;5113689;28;20089;-74
2022/07/10 03:14:23;;;;;;;2.55;1.45;;;16.70;66.80;;;;;;5113523;28;20081;-73
2022/07/10 03:16:49;;;;;;;2.67;1.20;;;16.70;66.70;;;;;;5113505;28;20031;-73
2022/07/10 03:19:15;;;;;;;2.25;1.20;;;16.70;66.80;;;;;;5113388;28;20391;-73
2022/07/10 03:21:40;;;;;;;2.38;1.17;;;16.70;66.50;;;;;;5113435;28;20054;-73
2022/07/10 03:24:06;;;;;;;1.85;1.35;;;16.90;66.40;;;;;;5113555;28;20032;-73
2022/07/10 03:26:31;;;;;;;1.92;1.20;;;16.90;66.10;;;;;;5113378;28;20028;-73
2022/07/10 03:28:57;;;;;;;2.45;1.00;;;16.90;66.20;;;;;;5113429;28;20037;-73
2022/07/10 03:31:22;;;;;;;2.55;1.10;;;16.90;66.20;;;;;;5095453;28;20043;-73
2022/07/10 03:33:48;;;;;;;3.08;1.10;;;16.80;66.50;;;;;;5095512;28;20028;-73
2022/07/10 03:36:14;;;;;;;1.30;1.00;;;16.80;66.70;;;;;;5113337;28;20057;-74
2022/07/10 03:38:40;;;;;;;1.88;0.90;;;16.70;66.70;;;;;;5113234;28;20058;-74
2022/07/10 03:41:06;;;;;;;1.88;1.05;;;16.80;66.70;;;;;;5113260;28;20039;-73
2022/07/10 03:43:32;;;;;;;1.95;1.13;;;16.80;66.50;;;;;;5095350;28;20083;-73
2022/07/10 03:45:58;;;;;;;3.08;0.95;;;16.80;66.20;;;;;;5113215;28;20020;-74
2022/07/10 03:48:24;;;;;;;2.55;0.90;;;16.80;66.50;;;;;;5113210;28;20031;-74
2022/07/10 03:50:51;;;;;;;1.77;1.00;;;16.80;66.60;;;;;;5113176;28;20024;-73
2022/07/10 03:53:17;;;;;;;3.05;1.30;;;16.80;66.70;;;;;;5113164;28;20028;-73
2022/07/10 03:55:42;;;;;;;2.22;1.05;;;16.80;66.80;;;;;;5113043;28;20071;-73
2022/07/10 03:58:08;;;;;;;1.42;1.00;;;16.70;67.00;;;;;;5113015;28;20032;-73
2022/07/10 04:00:36;;;;;;;1.02;0.90;;;16.70;67.10;;;;;;5116899;28;20050;-73
2022/07/10 04:03:05;;;;;;;1.58;0.90;;;16.60;67.30;;;;;;5099494;28;20080;-74
2022/07/10 04:05:31;;;;;;;2.35;1.10;;;16.60;67.60;;;;;;5117037;28;20012;-73
2022/07/10 04:07:58;;;;;;;2.00;1.00;;;16.60;68.00;;;;;;5116890;28;20024;-73
2022/07/10 04:10:26;;;;;;;2.38;1.17;;;16.60;68.10;;;;;;5116833;28;20032;-74
2022/07/10 04:12:52;;;;;;;1.10;1.00;;;16.50;68.00;;;;;;5116760;28;20024;-73
2022/07/10 04:15:19;;;;;;;4.00;1.48;;;16.60;68.30;;;;;;5116677;28;20054;-74
2022/07/10 04:17:44;;;;;;;2.05;1.17;;;16.60;68.40;;;;;;5116616;28;20016;-74
2022/07/10 04:20:11;;;;;;;2.85;1.25;;;16.50;68.70;;;;;;5116618;28;20115;-74
2022/07/10 04:22:37;;;;;;;1.48;1.00;;;16.50;68.90;;;;;;5116706;28;20027;-74
2022/07/10 04:25:05;;;;;;;3.05;1.42;;;16.50;68.80;;;;;;5116689;28;20025;-74
2022/07/10 04:27:31;;;;;;;4.30;1.50;;;16.50;69.20;;;;;;5116477;28;20032;-74
2022/07/10 04:29:56;;;;;;;1.75;1.08;;;16.40;69.40;;;;;;5116367;28;20024;-74
2022/07/10 04:32:22;;;;;;;3.17;1.20;;;16.40;69.60;;;;;;5116383;28;20047;-74
2022/07/10 04:34:47;;;;;;;2.75;1.30;;;16.50;69.70;;;;;;5116339;28;20036;-73
2022/07/10 04:37:13;;;;;;;2.65;0.98;;;16.50;69.60;;;;;;5116212;28;20066;-73
2022/07/10 04:39:39;;;;;;;2.67;1.35;;;16.50;69.40;;;;;;5116260;28;20031;-74
2022/07/10 04:42:08;;;;;;;2.03;1.30;;;16.50;69.40;;;;;;5116224;28;20428;-73
2022/07/10 04:44:36;;;;;;;2.65;1.40;;;16.60;69.60;;;;;;5116181;28;20028;-73
2022/07/10 04:47:02;;;;;;;2.80;1.02;;;16.60;69.50;;;;;;5116150;28;20035;-73
2022/07/10 04:49:28;;;;;;;3.90;1.40;;;16.60;69.40;;;;;;5116049;28;20044;-73
2022/07/10 04:51:54;;;;;;;1.70;1.35;;;16.70;69.10;;;;;;5116053;28;20081;-73
2022/07/10 04:54:20;;;;;;;1.73;1.20;;;16.80;69.00;;;;;;5115981;28;20039;-74
2022/07/10 04:56:46;;;;;;;2.67;1.40;;;16.80;69.00;;;;;;5097902;28;20044;-73
2022/07/10 04:59:12;;;;;;;2.95;1.50;;;16.90;69.00;;;;;;5115929;28;20082;-73
2022/07/10 05:01:37;;;;;;;2.22;1.42;;;17.00;68.80;;;;;;5098036;28;20039;-74
2022/07/10 05:04:04;;;;;;;1.83;1.30;;;17.00;68.50;;;;;;5115894;28;20028;-74
2022/07/10 05:06:30;;;;;;;2.00;1.50;;;17.10;68.40;;;;;;5115758;28;20083;-74
2022/07/10 05:08:56;;;;;;;2.47;1.60;;;17.20;68.20;;;;;;5115716;28;20028;-74
2022/07/10 05:11:22;;;;;;;3.17;1.63;;;17.20;67.80;;;;;;5097105;28;20092;-73
2022/07/10 05:13:48;;;;;;;3.47;1.40;;;17.20;68.10;;;;;;5115609;28;20020;-73
2022/07/10 05:16:15;;;;;;;3.17;1.20;;;17.10;68.40;;;;;;5115582;28;20056;-74
2022/07/10 05:18:41;;;;;;;1.60;1.25;;;17.00;68.60;;;;;;5115445;28;20065;-74
2022/07/10 05:21:07;;;;;;;1.90;1.30;;;17.00;68.50;;;;;;5115472;28;20028;-74
2022/07/10 05:23:33;;;;;;;2.47;1.40;;;17.00;68.90;;;;;;5115435;28;20050;-73
2022/07/10 05:25:59;;;;;;;2.60;1.48;;;17.00;69.00;;;;;;5097484;28;20028;-73
2022/07/10 05:28:24;;;;;;;2.60;1.73;;;16.90;69.20;;;;;;5115179;28;20085;-74
2022/07/10 05:30:50;;;;;;;1.88;1.40;;;16.90;69.30;;;;;;5115260;28;20040;-74
2022/07/10 05:33:16;;;;;;;3.13;1.65;;;17.00;68.80;;;;;;5115225;28;20036;-74
2022/07/10 05:35:42;;;;;;;3.03;1.25;;;17.00;69.20;;;;;;5115193;28;20087;-74
2022/07/10 05:38:08;;;;;;;1.98;1.35;;;17.00;68.90;;;;;;5115049;28;20032;-74
2022/07/10 05:40:33;;;;;;;1.52;1.33;;;17.00;69.20;;;;;;5115083;28;20028;-74
2022/07/10 05:42:59;;;;;;;3.17;1.25;;;17.10;69.20;;;;;;5115039;28;20027;-74
2022/07/10 05:45:25;;;;;;;2.00;1.27;;;17.00;69.30;;;;;;5114970;28;20028;-73
2022/07/10 05:47:51;;;;;;;3.33;1.40;;;17.00;69.40;;;;;;5114964;28;20024;-74
2022/07/10 05:50:17;;;;;;;2.78;1.83;;;17.00;69.40;;;;;;5114885;28;20035;-74
2022/07/10 05:52:43;;;;;;;2.70;1.40;;;17.10;69.30;;;;;;5114809;28;20032;-73
2022/07/10 05:55:08;;;;;;;2.15;1.27;;;17.10;69.50;;;;;;5114782;28;20048;-73
2022/07/10 05:57:35;;;;;;;1.83;1.20;;;17.20;69.30;;;;;;5114516;28;20131;-73
2022/07/10 06:00:03;;;;;;;2.15;1.25;;;17.30;69.00;;;;;;5114707;28;20017;-74
2022/07/10 06:02:29;;;;;;;2.53;1.48;;;17.30;69.00;;;;;;5114706;28;20042;-73
2022/07/10 06:04:54;;;;;;;2.08;1.17;;;17.30;69.00;;;;;;5114632;28;20083;-73
2022/07/10 06:07:20;;;;;;;4.10;1.50;;;17.40;68.80;;;;;;5114520;28;20024;-73
2022/07/10 06:09:46;;;;;;;3.78;1.20;;;17.40;68.70;;;;;;5114537;28;20039;-73
2022/07/10 06:12:11;;;;;;;2.50;1.38;;;17.50;68.50;;;;;;5114496;28;20106;-73
2022/07/10 06:14:37;;;;;;;3.33;1.45;;;17.50;68.60;;;;;;5114432;28;20028;-73
2022/07/10 06:17:03;;;;;;;3.95;1.48;;;17.60;68.30;;;;;;5114300;28;20058;-73
2022/07/10 06:19:28;;;;;;;3.30;1.17;;;17.60;68.40;;;;;;5114278;28;20031;-74
2022/07/10 06:24:38;;;;;;;2.80;1.40;;;17.70;67.90;;;;;;5114385;28;20150;-74
2022/07/10 06:27:05;;;;;;;3.47;1.20;;;17.70;68.00;;;;;;5114163;28;20032;-74
2022/07/10 06:29:30;;;;;;;2.10;1.33;;;17.70;68.00;;;;;;5114085;28;20021;-73
2022/07/10 06:31:56;;;;;;;1.58;0.82;;;17.80;67.70;;;;;;5096205;28;20039;-73
2022/07/10 06:34:22;;;;;;;1.90;0.70;;;17.80;67.50;;;;;;5114010;28;20024;-74
2022/07/10 06:36:47;;;;;;;1.20;0.57;;;17.80;67.40;;;;;;5114020;28;20024;-74
2022/07/10 06:39:13;;;;;;;1.27;0.60;;;17.90;66.80;;;;;;5113917;28;20036;-73
2022/07/10 06:41:38;;;;;;;2.28;0.63;;;17.80;66.40;;;;;;5113963;28;20028;-74
2022/07/10 06:44:05;;;;;;;1.92;0.57;;;17.90;66.50;;;;;;5113913;28;20054;-74
2022/07/10 06:46:32;;;;;;;1.27;1.08;;;17.90;66.50;;;;;;5113882;28;20040;-74
2022/07/10 06:48:58;;;;;;;4.85;1.00;;;17.90;66.20;;;;;;5113865;28;20028;-74
2022/07/10 06:51:23;;;;;;;3.25;1.00;;;18.00;66.10;;;;;;5113818;28;20467;-74
2022/07/10 06:53:49;;;;;;;0.75;0.60;;;18.00;66.00;;;;;;5113786;28;20058;-74
2022/07/10 06:56:16;;;;;;;1.30;0.60;;;18.00;66.00;;;;;;5095872;28;20048;-73
2022/07/10 06:58:42;;;;;;;2.33;0.70;;;18.00;65.90;;;;;;5113629;28;20020;-73
2022/07/10 07:01:07;;;;;;;1.77;0.82;;;18.00;66.10;;;;;;5113580;28;20055;-73
2022/07/10 07:03:33;;;;;;;1.17;0.70;;;18.00;66.00;;;;;;5113619;28;20024;-73
2022/07/10 07:05:59;;;;;;;1.95;0.90;;;18.10;66.00;;;;;;5113594;28;20017;-73
2022/07/10 07:08:25;;;;;;;1.77;0.70;;;18.10;66.00;;;;;;5113573;28;20032;-73
2022/07/10 07:10:50;;;;;;;1.55;0.57;;;18.10;65.70;;;;;;5113684;28;20048;-74
2022/07/10 07:13:16;;;;;;;2.47;0.80;;;18.10;65.80;;;;;;5113540;28;20084;-75
2022/07/10 07:15:46;;;;;;;3.22;0.90;;;18.20;65.80;;;;;;5113531;28;20032;-74
2022/07/10 07:18:15;;;;;;;2.42;0.93;;;18.20;65.90;;;;;;5113447;28;20024;-74
2022/07/10 07:23:26;;;;;;;1.70;0.60;;;18.30;65.90;;;;;;5113746;28;20058;-75
2022/07/10 07:25:52;;;;;;;1.45;0.80;;;18.30;65.90;;;;;;5113431;28;20498;-74
2022/07/10 07:28:19;;;;;;;2.97;0.93;;;18.30;65.80;;;;;;5113371;28;20368;-74
2022/07/10 07:30:46;;;;;;;2.65;0.88;;;18.30;65.80;;;;;;5113413;28;20028;-75
2022/07/10 07:33:11;;;;;;;2.28;0.88;;;18.30;65.80;;;;;;5113358;28;20027;-74
2022/07/10 07:35:37;;;;;;;3.75;0.77;;;18.20;65.60;;;;;;5117528;28;20020;-75
2022/07/10 07:38:03;;;;;;;1.23;0.63;;;18.20;65.80;;;;;;5117370;28;20081;-74
2022/07/10 07:40:29;;;;;;;2.25;0.75;;;18.20;66.00;;;;;;5117432;28;20032;-74
2022/07/10 07:42:55;;;;;;;1.15;0.60;;;18.30;66.00;;;;;;5117342;28;20020;-75
2022/07/10 07:45:22;;;;;;;2.75;1.00;;;18.30;65.90;;;;;;5099377;28;20032;-75
2022/07/10 07:47:53;;;;;;;1.15;0.70;;;18.20;66.20;;;;;;5117276;28;20027;-75
2022/07/10 07:50:25;;;;;;;2.33;0.90;;;18.20;66.10;;;;;;5117234;28;20053;-75
2022/07/10 07:52:51;;;;;;;;;;;18.20;66.20;;;;;;5117608;28;20035;-75
2022/07/10 07:55:18;;;;;;;1.60;0.77;;;18.20;66.30;;;;;;5117300;28;19904;-74
2022/07/10 07:57:44;;;;;;;7.82;0.80;;;18.20;66.30;;;;;;5117009;28;20040;-74
2022/07/10 08:00:12;;;;;;;1.00;0.65;;;18.20;66.30;;;;;;5116955;28;20072;-74
2022/07/10 08:02:39;;;;;;;1.42;0.80;;;18.30;66.30;;;;;;5117022;28;20050;-74
2022/07/10 08:05:06;;;;;;;1.63;0.60;;;18.30;66.10;;;;;;5116954;28;20025;-74
2022/07/10 08:07:39;;;;;;;4.43;0.95;;;18.20;66.00;;;;;;5116827;28;20489;-74
2022/07/10 08:10:07;;;;;;;2.28;0.80;;;18.30;65.90;;;;;;5110752;28;20051;-73
2022/07/10 08:12:33;;;;;;;1.48;0.95;;;18.30;65.90;;;;;;5116781;28;20028;-74
2022/07/10 08:14:58;;;;;;;2.08;0.90;;;18.40;66.00;;;;;;5098886;28;20051;-73
2022/07/10 08:17:25;;;;;;;2.00;0.80;;;18.40;66.20;;;;;;5116675;28;20024;-74
2022/07/10 08:19:51;;;;;;;4.22;0.98;;;18.40;66.00;;;;;;5116691;28;20028;-74
2022/07/10 08:22:16;;;;;;;1.90;0.95;;;18.40;65.90;;;;;;5116756;28;20035;-74
2022/07/10 08:24:42;;;;;;;4.43;0.90;;;18.40;65.80;;;;;;5098542;28;20056;-74
2022/07/10 08:27:08;;;;;;;1.80;0.70;;;18.40;65.60;;;;;;5116525;28;20087;-74
2022/07/10 08:29:33;;;;;;;3.53;0.90;;;18.50;65.60;;;;;;5116430;28;20079;-74
2022/07/10 08:31:59;;;;;;;2.03;0.85;;;18.50;65.60;;;;;;5116443;28;20046;-74
2022/07/10 08:34:25;;;;;;;3.45;1.02;;;18.50;65.70;;;;;;5116373;28;20054;-74
2022/07/10 08:36:51;;;;;;;2.25;1.20;;;18.50;65.90;;;;;;5116317;28;20016;-73
2022/07/10 08:39:20;;;;;;;5.53;1.30;;;18.60;65.90;;;;;;5116245;28;20035;-74
2022/07/10 08:41:49;;;;;;;1.77;1.10;;;18.60;66.20;;;;;;5116327;28;20019;-74
2022/07/10 08:44:16;;;;;;;1.98;1.13;;;18.60;67.10;;;;;;5116201;28;20016;-74
2022/07/10 08:46:42;;;;;;;1.30;0.80;;;18.70;66.30;;;;;;5115234;28;20027;-74
2022/07/10 08:49:15;;;;;;;2.22;0.88;;;18.70;66.00;;;;;;5116169;28;20020;-74
2022/07/10 08:51:47;;;;;;;5.10;2.50;;;18.80;66.70;;;;;;5116218;28;20028;-74
2022/07/10 08:54:15;;;;;;;3.70;2.42;;;18.80;65.80;;;;;;5116093;28;20020;-74
2022/07/10 08:56:41;;;;;;;5.28;2.17;;;18.70;65.80;;;;;;5115722;28;20069;-74
2022/07/10 08:59:08;;;;;;;3.53;1.35;;;18.70;65.60;;;;;;5115855;28;20032;-74
2022/07/10 09:01:33;;;;;;;2.67;1.55;;;18.70;65.90;;;;;;5116018;28;20030;-74
2022/07/10 09:03:59;;;;;;;2.78;1.52;;;18.80;66.00;;;;;;5115828;28;20047;-74
2022/07/10 09:06:27;;;;;;;2.78;1.27;;;18.80;66.00;;;;;;5115783;28;20024;-75
2022/07/10 09:09:05;;;;;;;2.63;1.52;;;18.80;66.80;;;;;;5115740;28;20020;-74
2022/07/10 09:11:32;;;;;;;2.40;1.15;;;18.80;66.10;;;;;;5115649;28;20024;-74
2022/07/10 09:14:04;;;;;;;3.53;1.33;;;18.80;66.00;;;;;;5115633;28;20028;-74
2022/07/10 09:16:32;;;;;;;3.97;1.43;;;18.90;65.80;;;;;;5115641;28;20027;-74
2022/07/10 09:19:17;;;;;;;2.63;1.10;;;18.90;66.00;;;;;;5115429;28;20285;-74
2022/07/10 09:21:43;;;;;;;2.40;1.38;;;19.00;66.30;;;;;;5115596;28;20027;-75
2022/07/10 09:24:08;;;;;;;1.70;1.25;;;19.10;65.80;;;;;;5115412;28;20024;-74
2022/07/10 09:26:38;;;;;;;2.65;1.50;;;19.20;65.50;;;;;;5115353;28;20024;-75
2022/07/10 09:29:08;;;;;;;1.60;1.10;;;19.20;65.50;;;;;;5115208;28;20036;-76
2022/07/10 09:31:53;;;;;;;1.58;1.08;;;19.30;65.90;;;;;;5115262;28;20053;-74
2022/07/10 09:37:43;;;;;;;1.88;1.55;;;19.40;65.30;;;;;;5013696;28;20041;-75
2022/07/10 09:40:09;;;;;;;2.20;1.20;;;19.40;65.20;;;;;;5092350;28;20035;-75
2022/07/10 09:42:36;;;;;;;1.98;1.02;;;19.40;65.10;;;;;;5115073;28;20028;-74
2022/07/10 09:45:14;;;;;;;1.30;1.10;;;19.50;65.30;;;;;;5115013;28;20067;-73
2022/07/10 09:47:41;;;;;;;4.28;1.40;;;19.70;65.40;;;;;;5096988;28;20024;-73
2022/07/10 09:50:24;;;;;;;2.58;1.50;;;19.70;64.90;;;;;;5114929;28;20035;-73
2022/07/10 09:52:52;;;;;;;1.88;1.10;;;19.80;64.50;;;;;;5115051;28;20123;-74
2022/07/10 09:55:20;;;;;;;3.90;1.23;;;19.90;64.30;;;;;;5097020;28;20020;-74
2022/07/10 09:57:52;;;;;;;3.03;1.25;;;20.10;64.30;;;;;;5114306;28;20046;-74
2022/07/10 10:00:18;;;;;;;2.33;1.10;;;20.30;64.60;;;;;;5114820;28;20024;-74
2022/07/10 10:02:45;;;;;;;1.33;0.90;;;20.30;63.60;;;;;;5114701;28;20475;-74
2022/07/10 10:05:12;;;;;;;2.78;1.10;;;20.30;62.70;;;;;;5114590;28;20070;-74
2022/07/10 10:07:39;;;;;;;2.65;1.15;;;20.30;62.90;;;;;;5114599;28;20027;-74
2022/07/10 10:10:07;;;;;;;1.95;1.10;;;20.40;62.30;;;;;;5114569;28;20024;-73
2022/07/10 10:12:42;;;;;;;2.45;1.48;;;20.40;62.40;;;;;;5114517;28;20043;-74
2022/07/10 10:15:10;;;;;;;1.85;1.13;;;20.40;62.30;;;;;;5114492;28;20031;-73
2022/07/10 10:17:38;;;;;;;1.10;0.98;;;20.40;62.40;;;;;;5114366;28;20042;-73
2022/07/10 10:22:50;;;;;;;2.22;1.30;;;20.40;62.50;;;;;;5114413;28;20544;-73
2022/07/10 10:25:19;;;;;;;2.08;1.10;;;20.40;62.20;;;;;;5114217;28;20020;-74
2022/07/10 10:27:45;;;;;;;1.48;1.10;;;20.40;62.20;;;;;;5114237;28;20024;-73
2022/07/10 10:30:11;;;;;;;2.25;1.10;;;20.40;62.20;;;;;;5114143;28;20111;-72
2022/07/10 10:32:40;;;;;;;2.45;1.05;;;20.50;62.50;;;;;;5114137;28;20028;-73
2022/07/10 10:35:09;;;;;;;2.03;1.42;;;20.60;62.30;;;;;;5114099;28;20028;-73
2022/07/10 10:37:42;;;;;;;2.00;1.20;;;20.70;62.00;;;;;;5113946;28;20107;-73
2022/07/10 10:40:09;;;;;;;2.08;1.45;;;20.80;61.60;;;;;;5114085;28;20039;-73
2022/07/10 10:42:38;;;;;;;2.50;1.52;;;20.90;61.70;;;;;;5113956;28;20020;-73
2022/07/10 10:45:34;;;;;;;2.35;1.30;;;20.90;61.50;;;;;;5113937;28;20024;-74
2022/07/10 10:48:08;;;;;;;1.40;1.20;;;21.00;60.90;;;;;;5096043;28;20020;-73
2022/07/10 10:50:42;;;;;;;3.92;1.50;;;21.00;61.10;;;;;;5113884;28;20443;-73
2022/07/10 10:53:20;;;;;;;3.22;1.17;;;21.00;60.60;;;;;;5113833;28;20027;-74
2022/07/10 10:56:05;;;;;;;2.97;1.20;;;21.00;60.00;;;;;;5095734;28;20036;-74
2022/07/10 10:58:38;;;;;;;1.33;0.90;;;21.00;60.00;;;;;;5113648;28;20076;-74
2022/07/10 11:01:28;;;;;;;1.55;1.30;;;21.10;60.20;;;;;;5079269;28;20043;-74
2022/07/10 11:04:09;;;;;;;1.77;0.98;;;21.20;60.20;;;;;;5113722;28;20028;-74
2022/07/10 11:06:49;;;;;;;1.65;1.23;;;21.30;58.20;;;;;;5113640;28;20024;-74
2022/07/10 11:09:34;;;;;;;1.45;1.13;;;21.30;58.80;;;;;;5113066;28;20020;-74
2022/07/10 11:11:59;;;;;;;1.25;0.73;;;21.50;58.90;;;;;;5113563;28;20555;-74
2022/07/10 11:14:28;;;;;;;1.10;0.70;;;21.60;57.50;;;;;;5095657;28;20028;-74
2022/07/10 11:16:55;;;;;;;1.05;0.90;;;21.70;57.90;;;;;;5113530;28;20020;-74
2022/07/10 11:19:23;;;;;;;1.50;1.00;;;21.70;57.60;;;;;;5113390;28;20025;-74
2022/07/10 11:21:59;;;;;;;1.90;1.20;;;21.80;57.70;;;;;;5113530;28;20021;-74
2022/07/10 11:24:59;;;;;;;1.50;1.20;;;21.80;57.90;;;;;;5113534;28;20063;-74
2022/07/10 11:27:45;;;;;;;2.25;1.00;;;21.80;58.10;;;;;;5095655;28;20111;-74
2022/07/10 11:30:11;;;;;;;1.90;1.02;;;21.90;58.00;;;;;;5095642;28;20030;-74
2022/07/10 11:32:37;;;;;;;1.25;1.00;;;21.90;58.60;;;;;;5078968;28;20028;-74
2022/07/10 11:35:12;;;;;;;2.42;1.33;;;21.90;57.60;;;;;;5113376;28;20028;-74
2022/07/10 11:37:52;;;;;;;1.58;1.10;;;21.90;56.90;;;;;;5113342;28;20115;-74
2022/07/10 11:40:21;;;;;;;1.52;1.10;;;22.00;57.50;;;;;;5113395;28;20013;-74
2022/07/10 11:42:51;;;;;;;1.63;1.20;;;22.00;56.60;;;;;;5113280;28;20021;-74
2022/07/10 11:45:23;;;;;;;1.75;1.08;;;22.00;56.90;;;;;;5113313;28;20065;-74
2022/07/10 11:47:49;;;;;;;1.35;1.10;;;22.10;57.20;;;;;;5113420;28;20028;-74
2022/07/10 11:50:15;;;;;;;1.13;1.02;;;22.10;57.10;;;;;;5113214;28;20036;-74
2022/07/10 11:52:41;;;;;;;3.33;1.35;;;22.10;57.10;;;;;;5113208;28;20021;-74
2022/07/10 11:55:21;;;;;;;1.55;1.10;;;22.10;56.70;;;;;;5113162;28;20029;-74
2022/07/10 11:57:50;;;;;;;1.65;1.38;;;22.10;56.00;;;;;;5112885;28;20045;-75
2022/07/10 12:00:27;;;;;;;2.05;1.30;;;21.90;56.60;;;;;;5113095;28;20016;-75
2022/07/10 12:02:54;;;;;;;1.67;1.20;;;21.90;56.70;;;;;;5113110;28;20084;-75
2022/07/10 12:05:38;;;;;;;1.65;1.40;;;21.70;57.20;;;;;;5113074;28;20024;-75
2022/07/10 12:08:04;;;;;;;1.42;1.13;;;21.60;56.50;;;;;;5113115;28;20399;-74
2022/07/10 12:10:31;;;;;;;1.73;1.30;;;21.50;57.20;;;;;;5113056;28;20509;-74
2022/07/10 12:13:23;;;;;;;3.47;1.30;;;21.50;57.30;;;;;;5113006;28;20024;-75
2022/07/10 12:15:49;;;;;;;1.48;1.10;;;21.50;57.30;;;;;;5108278;28;20098;-75
2022/07/10 12:18:21;;;;;;;1.45;1.17;;;21.50;57.50;;;;;;5112911;28;20017;-75
2022/07/10 12:20:49;;;;;;;1.42;0.98;;;21.50;57.90;;;;;;5115397;28;20024;-74
2022/07/10 12:23:16;;;;;;;1.38;0.95;;;21.50;58.30;;;;;;5116655;28;20026;-75
2022/07/10 12:25:44;;;;;;;1.10;1.00;;;21.50;58.10;;;;;;5116572;28;20020;-75
2022/07/10 12:28:12;;;;;;;1.38;0.90;;;21.50;57.70;;;;;;5116498;28;20024;-74
2022/07/10 12:30:51;;;;;;;7.72;1.15;;;21.50;58.10;;;;;;5116654;28;20084;-74
2022/07/10 12:33:20;;;;;;;1.23;1.13;;;21.50;57.80;;;;;;5116509;28;20039;-74
2022/07/10 12:35:58;;;;;;;2.17;1.30;;;21.50;57.70;;;;;;5116411;28;20032;-74
2022/07/10 12:38:33;;;;;;;2.38;1.30;;;21.60;57.80;;;;;;5116226;28;20032;-74
2022/07/10 12:41:10;;;;;;;2.30;1.27;;;21.60;58.30;;;;;;5116282;28;20016;-74
2022/07/10 12:43:36;;;;;;;2.03;1.20;;;21.60;58.50;;;;;;5116259;28;20032;-74
2022/07/10 12:46:15;;;;;;;1.40;1.15;;;21.60;58.60;;;;;;5116221;28;20024;-74
2022/07/10 12:49:01;;;;;;;3.72;1.30;;;21.50;58.30;;;;;;5116178;28;20083;-74
2022/07/10 12:51:28;;;;;;;2.45;1.20;;;21.50;58.60;;;;;;5116160;28;20032;-74
2022/07/10 12:53:54;;;;;;;1.35;1.20;;;21.60;58.90;;;;;;5116067;28;20028;-74
2022/07/10 12:56:29;;;;;;;3.50;1.40;;;21.60;58.80;;;;;;5115831;28;20068;-75
2022/07/10 12:58:55;;;;;;;1.48;1.13;;;21.80;58.40;;;;;;5115886;28;20028;-75
2022/07/10 13:01:21;;;;;;;3.55;1.30;;;21.90;58.00;;;;;;5116068;28;20028;-75
2022/07/10 13:03:46;;;;;;;2.83;1.33;;;21.90;57.50;;;;;;5115831;28;20028;-75
2022/07/10 13:06:28;;;;;;;2.38;1.20;;;22.00;57.50;;;;;;5115835;28;20035;-75